Map

Track Data

SID SEASON NUMBER BASIN SUBBASIN NAME ISO_TIME NATURE LAT LON WMO_WIND WMO_PRES WMO_AGENCY TRACK_TYPE DIST2LAND LANDFALL IFLAG USA_AGENCY USA_ATCF_ID USA_LAT USA_LON USA_RECORD USA_STATUS USA_WIND USA_PRES USA_SSHS USA_R34_NE USA_R34_SE USA_R34_SW USA_R34_NW USA_R50_NE USA_R50_SE USA_R50_SW USA_R50_NW USA_R64_NE USA_R64_SE USA_R64_SW USA_R64_NW USA_POCI USA_ROCI USA_RMW USA_EYE TOKYO_LAT TOKYO_LON TOKYO_GRADE TOKYO_WIND TOKYO_PRES TOKYO_R50_DIR TOKYO_R50_LONG TOKYO_R50_SHORT TOKYO_R30_DIR TOKYO_R30_LONG TOKYO_R30_SHORT TOKYO_LAND CMA_LAT CMA_LON CMA_CAT CMA_WIND CMA_PRES HKO_LAT HKO_LON HKO_CAT HKO_WIND HKO_PRES NEWDELHI_LAT NEWDELHI_LON NEWDELHI_GRADE NEWDELHI_WIND NEWDELHI_PRES NEWDELHI_CI NEWDELHI_DP NEWDELHI_POCI REUNION_LAT REUNION_LON REUNION_TYPE REUNION_WIND REUNION_PRES REUNION_TNUM REUNION_CI REUNION_RMW REUNION_R34_NE REUNION_R34_SE REUNION_R34_SW REUNION_R34_NW REUNION_R50_NE REUNION_R50_SE REUNION_R50_SW REUNION_R50_NW REUNION_R64_NE REUNION_R64_SE REUNION_R64_SW REUNION_R64_NW BOM_LAT BOM_LON BOM_TYPE BOM_WIND BOM_PRES BOM_TNUM BOM_CI BOM_RMW BOM_R34_NE BOM_R34_SE BOM_R34_SW BOM_R34_NW BOM_R50_NE BOM_R50_SE BOM_R50_SW BOM_R50_NW BOM_R64_NE BOM_R64_SE BOM_R64_SW BOM_R64_NW BOM_ROCI BOM_POCI BOM_EYE BOM_POS_METHOD BOM_PRES_METHOD NADI_LAT NADI_LON NADI_CAT NADI_WIND NADI_PRES WELLINGTON_LAT WELLINGTON_LON WELLINGTON_WIND WELLINGTON_PRES DS824_LAT DS824_LON DS824_STAGE DS824_WIND DS824_PRES TD9636_LAT TD9636_LON TD9636_STAGE TD9636_WIND TD9636_PRES TD9635_LAT TD9635_LON TD9635_WIND TD9635_PRES TD9635_ROCI NEUMANN_LAT NEUMANN_LON NEUMANN_CLASS NEUMANN_WIND NEUMANN_PRES MLC_LAT MLC_LON MLC_CLASS MLC_WIND MLC_PRES USA_GUST BOM_GUST BOM_GUST_PER REUNION_GUST REUNION_GUST_PER USA_SEAHGT USA_SEARAD_NE USA_SEARAD_SE USA_SEARAD_SW USA_SEARAD_NW STORM_SPEED STORM_DIR
1982290N10084 1982 93 NI BB NOT_NAMED 1982-10-17 02:00:00 NR 9.80000 84.3000 main 355 350 __________O___ -1 9.80000 84.3000 0 9 316
1982290N10084 1982 93 NI BB NOT_NAMED 1982-10-17 03:00:00 NR 9.90560 84.1947 main 350 340 __________P___ -1 9.90560 84.1947 0 9 315
1982290N10084 1982 93 NI BB NOT_NAMED 1982-10-17 06:00:00 NR 10.2150 83.8829 main 340 325 O_________P___ jtwc_io IO041982 10.2000 83.9000 40 0 10.2200 83.8772 0 9 314
1982290N10084 1982 93 NI BB NOT_NAMED 1982-10-17 09:00:00 NR 10.5164 83.5534 main 331 312 P_________P___ IO041982 10.4976 83.5501 42 -1 10.5258 83.5551 0 9 312
1982290N10084 1982 93 NI BB NOT_NAMED 1982-10-17 12:00:00 NR 10.8097 83.2145 main 312 307 O_________P___ jtwc_io IO041982 10.8000 83.2000 45 0 10.8170 83.2254 0 9 311
1982290N10084 1982 93 NI BB NOT_NAMED 1982-10-17 14:00:00 NR 11.0027 82.9833 main 307 298 P_________O___ IO041982 11.0054 82.9666 46 -1 11.0000 83.0000 1 35 9 310
1982290N10084 1982 93 NI BB NOT_NAMED 1982-10-17 15:00:00 NR 11.0975 82.8676 main 305 279 P_________P___ IO041982 11.1075 82.8500 47 -1 11.0876 82.8853 1 35 9 309
1982290N10084 1982 93 NI BB NOT_NAMED 1982-10-17 18:00:00 NR 11.3710 82.5177 main 279 239 O_________P___ jtwc_io IO041982 11.4000 82.5000 50 0 11.3419 82.5353 1 38 9 307
1982290N10084 1982 93 NI BB NOT_NAMED 1982-10-17 21:00:00 NR 11.6215 82.1619 main 239 186 P_________P___ IO041982 11.6425 82.1424 50 -1 11.6004 82.1814 1 40 9 307
1982290N10084 1982 93 NI BB NOT_NAMED 1982-10-18 00:00:00 NR 11.8925 81.8149 main 186 158 O_________P___ jtwc_io IO041982 11.9000 81.8000 50 0 11.8850 81.8299 1 43 9 311
1982290N10084 1982 93 NI BB NOT_NAMED 1982-10-18 02:00:00 NR 12.1033 81.5987 main 158 145 P_________O___ IO041982 12.1066 81.5974 48 -1 12.1000 81.6000 2 45 9 316
1982290N10084 1982 93 NI BB NOT_NAMED 1982-10-18 03:00:00 NR 12.2232 81.4929 main 145 108 P_________P___ IO041982 12.2199 81.4999 47 -1 12.2264 81.4859 2 45 10 321
1982290N10084 1982 93 NI BB NOT_NAMED 1982-10-18 06:00:00 NR 12.6204 81.1740 main 108 73 O_________P___ jtwc_io IO041982 12.6000 81.2000 45 0 12.6409 81.1481 2 46 11 323
1982290N10084 1982 93 NI BB NOT_NAMED 1982-10-18 09:00:00 NR 13.0631 80.8347 main 58 21 P_________P___ IO041982 13.0425 80.8500 40 -1 13.0837 80.8193 2 47 11 324
1982290N10084 1982 93 NI BB NOT_NAMED 1982-10-18 12:00:00 NR 13.5119 80.5014 main 21 0 O_________P___ jtwc_io IO041982 13.5000 80.5000 35 0 13.5237 80.5027 2 49 11 324
1982290N10084 1982 93 NI BB NOT_NAMED 1982-10-18 14:00:00 NR 13.7927 80.2933 main 0 0 P_________O___ IO041982 13.7854 80.2866 38 -1 13.8000 80.3000 4 50 10 324
1982290N10084 1982 93 NI BB NOT_NAMED 1982-10-18 15:00:00 NR 13.9261 80.1932 main 0 0 P_________P___ IO041982 13.9225 80.1849 40 -1 13.9298 80.2015 4 48 9 323
1982290N10084 1982 93 NI BB NOT_NAMED 1982-10-18 18:00:00 NR 14.2930 79.9092 main 0 0 O_________P___ jtwc_io IO041982 14.3000 79.9000 XX 45 -5 14.2878 79.9161 4 43 9 322
1982290N10084 1982 93 NI BB NOT_NAMED 1982-10-18 21:00:00 NR 14.6124 79.6426 main 0 0 P_________P___ IO041982 14.6175 79.6426 XX 37 -5 14.6090 79.6425 4 38 8 320
1982290N10084 1982 93 NI BB NOT_NAMED 1982-10-19 00:00:00 NR 14.9048 79.3840 main 0 0 O_________P___ jtwc_io IO041982 14.9000 79.4000 XX 30 -5 14.9072 79.3760 4 33 8 319
1982290N10084 1982 93 NI BB NOT_NAMED 1982-10-19 02:00:00 NR 15.1000 79.2000 main 0 __________O___ IO041982 XX -5 15.1000 79.2000 1 30 8 318

About IBTrACS Database

This database is a web-friendly format of International Best Track Archive for Climate Stewardship (IBTrACS), a global best track data archive curated by NOAA dating back to 1842.

Updated: 2021-12-01